sensor_id;sensor_type;location;lat;lon;timestamp;temperature;humidity
54429;DHT22;40337;52.978;6.310;2022-07-29T00:01:34;15.70;99.90
54429;DHT22;40337;52.978;6.310;2022-07-29T00:04:00;15.70;99.90
54429;DHT22;40337;52.978;6.310;2022-07-29T00:06:25;15.70;99.90
54429;DHT22;40337;52.978;6.310;2022-07-29T00:08:51;15.70;99.90
54429;DHT22;40337;52.978;6.310;2022-07-29T00:11:16;15.70;99.90
54429;DHT22;40337;52.978;6.310;2022-07-29T00:13:42;15.70;99.90
54429;DHT22;40337;52.978;6.310;2022-07-29T00:16:08;15.70;99.90
54429;DHT22;40337;52.978;6.310;2022-07-29T00:18:33;15.60;99.90
54429;DHT22;40337;52.978;6.310;2022-07-29T00:20:59;15.60;99.90
54429;DHT22;40337;52.978;6.310;2022-07-29T00:23:25;15.60;99.90
54429;DHT22;40337;52.978;6.310;2022-07-29T00:25:50;15.60;99.90
54429;DHT22;40337;52.978;6.310;2022-07-29T00:28:16;15.60;99.90
54429;DHT22;40337;52.978;6.310;2022-07-29T00:30:41;15.60;99.90
54429;DHT22;40337;52.978;6.310;2022-07-29T00:33:08;15.60;99.90
54429;DHT22;40337;52.978;6.310;2022-07-29T00:35:34;15.60;99.90
54429;DHT22;40337;52.978;6.310;2022-07-29T00:38:09;15.60;99.90
54429;DHT22;40337;52.978;6.310;2022-07-29T00:40:35;15.50;99.90
54429;DHT22;40337;52.978;6.310;2022-07-29T00:43:01;15.50;99.90
54429;DHT22;40337;52.978;6.310;2022-07-29T00:45:27;15.50;99.90
54429;DHT22;40337;52.978;6.310;2022-07-29T00:47:52;15.50;99.90
54429;DHT22;40337;52.978;6.310;2022-07-29T00:50:18;15.50;99.90
54429;DHT22;40337;52.978;6.310;2022-07-29T00:52:44;15.50;99.90
54429;DHT22;40337;52.978;6.310;2022-07-29T00:55:13;15.40;99.90
54429;DHT22;40337;52.978;6.310;2022-07-29T00:57:40;15.40;99.90
54429;DHT22;40337;52.978;6.310;2022-07-29T01:00:08;15.40;99.90
54429;DHT22;40337;52.978;6.310;2022-07-29T01:02:35;15.40;99.90
54429;DHT22;40337;52.978;6.310;2022-07-29T01:05:01;15.30;99.90
54429;DHT22;40337;52.978;6.310;2022-07-29T01:07:28;15.30;99.90
54429;DHT22;40337;52.978;6.310;2022-07-29T01:09:55;15.30;99.90
54429;DHT22;40337;52.978;6.310;2022-07-29T01:12:27;15.20;99.90
54429;DHT22;40337;52.978;6.310;2022-07-29T01:14:54;15.20;99.90
54429;DHT22;40337;52.978;6.310;2022-07-29T01:20:10;15.20;99.90
54429;DHT22;40337;52.978;6.310;2022-07-29T01:28:47;15.10;99.90
54429;DHT22;40337;52.978;6.310;2022-07-29T01:31:22;15.10;99.90
54429;DHT22;40337;52.978;6.310;2022-07-29T01:33:55;15.10;99.90
54429;DHT22;40337;52.978;6.310;2022-07-29T01:36:35;15.10;99.90
54429;DHT22;40337;52.978;6.310;2022-07-29T01:39:10;15.10;99.90
54429;DHT22;40337;52.978;6.310;2022-07-29T01:41:40;15.10;99.90
54429;DHT22;40337;52.978;6.310;2022-07-29T01:44:20;15.20;99.90
54429;DHT22;40337;52.978;6.310;2022-07-29T01:46:52;15.20;99.90
54429;DHT22;40337;52.978;6.310;2022-07-29T01:49:27;15.20;99.90
54429;DHT22;40337;52.978;6.310;2022-07-29T01:52:00;15.20;99.90
54429;DHT22;40337;52.978;6.310;2022-07-29T01:57:06;15.20;99.90
54429;DHT22;40337;52.978;6.310;2022-07-29T01:59:34;15.20;99.90
54429;DHT22;40337;52.978;6.310;2022-07-29T02:02:02;15.20;99.90
54429;DHT22;40337;52.978;6.310;2022-07-29T02:04:30;15.20;99.90
54429;DHT22;40337;52.978;6.310;2022-07-29T02:07:02;15.20;99.90
54429;DHT22;40337;52.978;6.310;2022-07-29T02:09:30;15.20;99.90
54429;DHT22;40337;52.978;6.310;2022-07-29T02:11:58;15.20;99.90
54429;DHT22;40337;52.978;6.310;2022-07-29T02:14:25;15.20;99.90
54429;DHT22;40337;52.978;6.310;2022-07-29T02:16:54;15.20;99.90
54429;DHT22;40337;52.978;6.310;2022-07-29T02:19:21;15.20;99.90
54429;DHT22;40337;52.978;6.310;2022-07-29T02:21:51;15.20;99.90
54429;DHT22;40337;52.978;6.310;2022-07-29T02:24:20;15.20;99.90
54429;DHT22;40337;52.978;6.310;2022-07-29T02:26:47;15.20;99.90
54429;DHT22;40337;52.978;6.310;2022-07-29T02:29:15;15.20;99.90
54429;DHT22;40337;52.978;6.310;2022-07-29T02:31:43;15.20;99.90
54429;DHT22;40337;52.978;6.310;2022-07-29T02:34:10;15.20;99.90
54429;DHT22;40337;52.978;6.310;2022-07-29T02:36:36;15.20;99.90
54429;DHT22;40337;52.978;6.310;2022-07-29T02:39:03;15.30;99.90
54429;DHT22;40337;52.978;6.310;2022-07-29T02:41:37;15.20;99.90
54429;DHT22;40337;52.978;6.310;2022-07-29T02:44:09;15.30;99.90
54429;DHT22;40337;52.978;6.310;2022-07-29T02:46:37;15.30;99.90
54429;DHT22;40337;52.978;6.310;2022-07-29T02:49:16;15.20;99.90
54429;DHT22;40337;52.978;6.310;2022-07-29T02:51:54;15.20;99.90
54429;DHT22;40337;52.978;6.310;2022-07-29T02:54:44;15.30;99.90
54429;DHT22;40337;52.978;6.310;2022-07-29T02:57:21;15.20;99.90
54429;DHT22;40337;52.978;6.310;2022-07-29T02:59:51;15.20;99.90
54429;DHT22;40337;52.978;6.310;2022-07-29T03:02:18;15.20;99.90
54429;DHT22;40337;52.978;6.310;2022-07-29T03:04:44;15.30;99.90
54429;DHT22;40337;52.978;6.310;2022-07-29T03:07:13;15.20;99.90
54429;DHT22;40337;52.978;6.310;2022-07-29T03:09:40;15.30;99.90
54429;DHT22;40337;52.978;6.310;2022-07-29T03:12:07;15.20;99.90
54429;DHT22;40337;52.978;6.310;2022-07-29T03:14:33;15.30;99.90
54429;DHT22;40337;52.978;6.310;2022-07-29T03:17:00;15.20;99.90
54429;DHT22;40337;52.978;6.310;2022-07-29T03:19:26;15.30;99.90
54429;DHT22;40337;52.978;6.310;2022-07-29T03:21:52;15.30;99.90
54429;DHT22;40337;52.978;6.310;2022-07-29T03:24:32;15.20;99.90
54429;DHT22;40337;52.978;6.310;2022-07-29T03:26:58;15.30;99.90
54429;DHT22;40337;52.978;6.310;2022-07-29T03:29:25;15.20;99.90
54429;DHT22;40337;52.978;6.310;2022-07-29T03:31:51;15.20;99.90
54429;DHT22;40337;52.978;6.310;2022-07-29T03:34:16;15.20;99.90
54429;DHT22;40337;52.978;6.310;2022-07-29T03:36:42;15.20;99.90
54429;DHT22;40337;52.978;6.310;2022-07-29T03:39:09;15.20;99.90
54429;DHT22;40337;52.978;6.310;2022-07-29T03:41:36;15.20;99.90
54429;DHT22;40337;52.978;6.310;2022-07-29T03:44:05;15.20;99.90
54429;DHT22;40337;52.978;6.310;2022-07-29T03:46:34;15.20;99.90
54429;DHT22;40337;52.978;6.310;2022-07-29T03:49:01;15.20;99.90
54429;DHT22;40337;52.978;6.310;2022-07-29T03:51:28;15.10;99.90
54429;DHT22;40337;52.978;6.310;2022-07-29T03:53:54;15.10;99.90
54429;DHT22;40337;52.978;6.310;2022-07-29T03:56:21;15.10;99.90
54429;DHT22;40337;52.978;6.310;2022-07-29T03:58:50;15.00;99.90
54429;DHT22;40337;52.978;6.310;2022-07-29T04:01:16;15.00;99.90
54429;DHT22;40337;52.978;6.310;2022-07-29T04:03:43;15.00;99.90
54429;DHT22;40337;52.978;6.310;2022-07-29T04:06:11;15.00;99.90
54429;DHT22;40337;52.978;6.310;2022-07-29T04:08:36;15.00;99.90
54429;DHT22;40337;52.978;6.310;2022-07-29T04:11:03;15.00;99.90
54429;DHT22;40337;52.978;6.310;2022-07-29T04:13:29;14.90;99.90
54429;DHT22;40337;52.978;6.310;2022-07-29T04:15:55;14.90;99.90
54429;DHT22;40337;52.978;6.310;2022-07-29T04:18:21;14.90;99.90
54429;DHT22;40337;52.978;6.310;2022-07-29T04:20:46;14.90;99.90
54429;DHT22;40337;52.978;6.310;2022-07-29T04:23:12;14.90;99.90
54429;DHT22;40337;52.978;6.310;2022-07-29T04:25:39;14.90;99.90
54429;DHT22;40337;52.978;6.310;2022-07-29T04:28:05;14.90;99.90
54429;DHT22;40337;52.978;6.310;2022-07-29T04:30:32;14.90;99.90
54429;DHT22;40337;52.978;6.310;2022-07-29T04:32:59;14.90;99.90
54429;DHT22;40337;52.978;6.310;2022-07-29T04:35:26;14.90;99.90
54429;DHT22;40337;52.978;6.310;2022-07-29T04:37:52;14.90;99.90
54429;DHT22;40337;52.978;6.310;2022-07-29T04:40:18;14.90;99.90
54429;DHT22;40337;52.978;6.310;2022-07-29T04:42:43;14.90;99.90
54429;DHT22;40337;52.978;6.310;2022-07-29T04:45:09;14.90;99.90
54429;DHT22;40337;52.978;6.310;2022-07-29T04:47:35;14.90;99.90
54429;DHT22;40337;52.978;6.310;2022-07-29T04:50:00;14.90;99.90
54429;DHT22;40337;52.978;6.310;2022-07-29T04:52:26;14.90;99.90
54429;DHT22;40337;52.978;6.310;2022-07-29T04:54:51;14.90;99.90
54429;DHT22;40337;52.978;6.310;2022-07-29T04:57:17;14.90;99.90
54429;DHT22;40337;52.978;6.310;2022-07-29T04:59:43;14.90;99.90
54429;DHT22;40337;52.978;6.310;2022-07-29T05:02:09;14.90;99.90
54429;DHT22;40337;52.978;6.310;2022-07-29T05:04:35;14.90;99.90
54429;DHT22;40337;52.978;6.310;2022-07-29T05:07:00;15.00;99.90
54429;DHT22;40337;52.978;6.310;2022-07-29T05:09:26;15.00;99.90
54429;DHT22;40337;52.978;6.310;2022-07-29T05:11:52;15.00;99.90
54429;DHT22;40337;52.978;6.310;2022-07-29T05:14:17;15.00;99.90
54429;DHT22;40337;52.978;6.310;2022-07-29T05:16:43;15.00;99.90
54429;DHT22;40337;52.978;6.310;2022-07-29T05:19:09;15.00;99.90
54429;DHT22;40337;52.978;6.310;2022-07-29T05:21:34;15.00;99.90
54429;DHT22;40337;52.978;6.310;2022-07-29T05:24:00;15.00;99.90
54429;DHT22;40337;52.978;6.310;2022-07-29T05:26:26;15.00;99.90
54429;DHT22;40337;52.978;6.310;2022-07-29T05:28:51;15.10;99.90
54429;DHT22;40337;52.978;6.310;2022-07-29T05:31:17;15.00;99.90
54429;DHT22;40337;52.978;6.310;2022-07-29T05:33:42;15.00;99.90
54429;DHT22;40337;52.978;6.310;2022-07-29T05:36:08;15.00;99.90
54429;DHT22;40337;52.978;6.310;2022-07-29T05:38:35;15.10;99.90
54429;DHT22;40337;52.978;6.310;2022-07-29T05:41:01;15.10;99.90
54429;DHT22;40337;52.978;6.310;2022-07-29T05:43:27;15.10;99.90
54429;DHT22;40337;52.978;6.310;2022-07-29T05:45:53;15.10;99.90
54429;DHT22;40337;52.978;6.310;2022-07-29T05:48:19;15.10;99.90
54429;DHT22;40337;52.978;6.310;2022-07-29T05:50:44;15.10;99.90
54429;DHT22;40337;52.978;6.310;2022-07-29T05:53:10;15.10;99.90
54429;DHT22;40337;52.978;6.310;2022-07-29T05:55:35;15.20;99.90
54429;DHT22;40337;52.978;6.310;2022-07-29T05:58:01;15.20;99.90
54429;DHT22;40337;52.978;6.310;2022-07-29T06:00:27;15.10;99.90
54429;DHT22;40337;52.978;6.310;2022-07-29T06:02:52;15.20;99.90
54429;DHT22;40337;52.978;6.310;2022-07-29T06:05:18;15.20;99.90
54429;DHT22;40337;52.978;6.310;2022-07-29T06:07:43;15.30;99.90
54429;DHT22;40337;52.978;6.310;2022-07-29T06:10:11;15.20;99.90
54429;DHT22;40337;52.978;6.310;2022-07-29T06:12:36;15.40;99.90
54429;DHT22;40337;52.978;6.310;2022-07-29T06:15:02;15.40;99.90
54429;DHT22;40337;52.978;6.310;2022-07-29T06:17:28;15.50;99.90
54429;DHT22;40337;52.978;6.310;2022-07-29T06:19:53;15.70;99.90
54429;DHT22;40337;52.978;6.310;2022-07-29T06:22:19;15.70;99.90
54429;DHT22;40337;52.978;6.310;2022-07-29T06:24:44;15.80;99.90
54429;DHT22;40337;52.978;6.310;2022-07-29T06:27:11;15.90;99.90
54429;DHT22;40337;52.978;6.310;2022-07-29T06:29:36;16.00;99.90
54429;DHT22;40337;52.978;6.310;2022-07-29T06:32:03;16.00;99.90
54429;DHT22;40337;52.978;6.310;2022-07-29T06:34:28;16.00;99.90
54429;DHT22;40337;52.978;6.310;2022-07-29T06:36:54;16.00;99.90
54429;DHT22;40337;52.978;6.310;2022-07-29T06:39:20;15.90;99.90
54429;DHT22;40337;52.978;6.310;2022-07-29T06:41:50;15.90;99.90
54429;DHT22;40337;52.978;6.310;2022-07-29T06:44:16;15.90;99.90
54429;DHT22;40337;52.978;6.310;2022-07-29T06:46:43;15.90;99.90
54429;DHT22;40337;52.978;6.310;2022-07-29T06:49:09;15.90;99.90
54429;DHT22;40337;52.978;6.310;2022-07-29T06:51:35;15.90;99.90
54429;DHT22;40337;52.978;6.310;2022-07-29T06:54:01;15.90;99.90
54429;DHT22;40337;52.978;6.310;2022-07-29T06:56:27;15.90;99.90
54429;DHT22;40337;52.978;6.310;2022-07-29T06:58:53;15.90;99.90
54429;DHT22;40337;52.978;6.310;2022-07-29T07:01:18;16.00;99.90
54429;DHT22;40337;52.978;6.310;2022-07-29T07:03:45;16.00;99.90
54429;DHT22;40337;52.978;6.310;2022-07-29T07:06:10;16.00;99.90
54429;DHT22;40337;52.978;6.310;2022-07-29T07:08:36;16.10;99.90
54429;DHT22;40337;52.978;6.310;2022-07-29T07:11:01;16.00;99.90
54429;DHT22;40337;52.978;6.310;2022-07-29T07:13:27;16.10;99.90
54429;DHT22;40337;52.978;6.310;2022-07-29T07:15:56;16.10;99.90
54429;DHT22;40337;52.978;6.310;2022-07-29T07:18:22;16.10;99.90
54429;DHT22;40337;52.978;6.310;2022-07-29T07:20:47;16.20;99.90
54429;DHT22;40337;52.978;6.310;2022-07-29T07:23:13;16.30;99.90
54429;DHT22;40337;52.978;6.310;2022-07-29T07:25:39;16.30;99.90
54429;DHT22;40337;52.978;6.310;2022-07-29T07:28:04;16.30;99.90
54429;DHT22;40337;52.978;6.310;2022-07-29T07:30:30;16.40;99.90
54429;DHT22;40337;52.978;6.310;2022-07-29T07:32:56;16.40;99.90
54429;DHT22;40337;52.978;6.310;2022-07-29T07:35:22;16.50;99.90
54429;DHT22;40337;52.978;6.310;2022-07-29T07:37:47;16.50;99.90
54429;DHT22;40337;52.978;6.310;2022-07-29T07:40:13;16.60;99.90
54429;DHT22;40337;52.978;6.310;2022-07-29T07:42:41;16.60;99.90
54429;DHT22;40337;52.978;6.310;2022-07-29T07:45:07;16.60;99.90
54429;DHT22;40337;52.978;6.310;2022-07-29T07:47:35;16.60;99.90
54429;DHT22;40337;52.978;6.310;2022-07-29T07:50:01;16.70;99.90
54429;DHT22;40337;52.978;6.310;2022-07-29T07:52:27;16.70;99.90
54429;DHT22;40337;52.978;6.310;2022-07-29T07:54:52;16.70;99.90
54429;DHT22;40337;52.978;6.310;2022-07-29T07:57:18;16.80;99.90
54429;DHT22;40337;52.978;6.310;2022-07-29T07:59:44;16.80;99.90
54429;DHT22;40337;52.978;6.310;2022-07-29T08:02:10;16.80;99.90
54429;DHT22;40337;52.978;6.310;2022-07-29T08:04:35;16.90;99.90
54429;DHT22;40337;52.978;6.310;2022-07-29T08:07:01;16.90;99.90
54429;DHT22;40337;52.978;6.310;2022-07-29T08:09:28;16.90;99.90
54429;DHT22;40337;52.978;6.310;2022-07-29T08:11:54;17.00;99.90
54429;DHT22;40337;52.978;6.310;2022-07-29T08:14:20;17.00;99.90
54429;DHT22;40337;52.978;6.310;2022-07-29T08:16:46;17.00;99.90
54429;DHT22;40337;52.978;6.310;2022-07-29T08:19:12;17.00;99.90
54429;DHT22;40337;52.978;6.310;2022-07-29T08:21:38;17.00;99.90
54429;DHT22;40337;52.978;6.310;2022-07-29T08:24:04;17.00;99.90
54429;DHT22;40337;52.978;6.310;2022-07-29T08:26:49;17.10;99.90
54429;DHT22;40337;52.978;6.310;2022-07-29T08:29:14;17.10;99.90
54429;DHT22;40337;52.978;6.310;2022-07-29T08:31:41;17.10;99.90
54429;DHT22;40337;52.978;6.310;2022-07-29T08:34:07;17.10;99.90
54429;DHT22;40337;52.978;6.310;2022-07-29T08:36:33;17.10;99.90
54429;DHT22;40337;52.978;6.310;2022-07-29T08:38:59;17.20;99.90
54429;DHT22;40337;52.978;6.310;2022-07-29T08:41:26;17.20;99.90
54429;DHT22;40337;52.978;6.310;2022-07-29T08:43:52;17.20;99.90
54429;DHT22;40337;52.978;6.310;2022-07-29T08:46:19;17.20;99.90
54429;DHT22;40337;52.978;6.310;2022-07-29T08:48:45;17.30;99.90
54429;DHT22;40337;52.978;6.310;2022-07-29T08:51:16;17.40;99.90
54429;DHT22;40337;52.978;6.310;2022-07-29T08:53:44;17.40;99.90
54429;DHT22;40337;52.978;6.310;2022-07-29T08:56:14;17.40;99.90
54429;DHT22;40337;52.978;6.310;2022-07-29T08:58:42;17.50;99.90
54429;DHT22;40337;52.978;6.310;2022-07-29T09:01:08;17.50;99.90
54429;DHT22;40337;52.978;6.310;2022-07-29T09:03:39;17.60;99.90
54429;DHT22;40337;52.978;6.310;2022-07-29T09:06:05;17.60;99.90
54429;DHT22;40337;52.978;6.310;2022-07-29T09:08:32;17.70;99.90
54429;DHT22;40337;52.978;6.310;2022-07-29T09:10:58;17.70;99.90
54429;DHT22;40337;52.978;6.310;2022-07-29T09:13:25;17.70;99.90
54429;DHT22;40337;52.978;6.310;2022-07-29T09:15:51;17.70;99.90
54429;DHT22;40337;52.978;6.310;2022-07-29T09:21:02;17.80;99.90
54429;DHT22;40337;52.978;6.310;2022-07-29T09:24:07;17.90;99.90
54429;DHT22;40337;52.978;6.310;2022-07-29T09:26:35;17.90;99.90
54429;DHT22;40337;52.978;6.310;2022-07-29T09:29:11;18.00;99.90
54429;DHT22;40337;52.978;6.310;2022-07-29T09:31:39;18.10;99.90
54429;DHT22;40337;52.978;6.310;2022-07-29T09:34:06;18.10;99.90
54429;DHT22;40337;52.978;6.310;2022-07-29T09:36:42;18.20;99.90
54429;DHT22;40337;52.978;6.310;2022-07-29T09:39:08;18.40;99.90
54429;DHT22;40337;52.978;6.310;2022-07-29T09:41:51;18.50;99.90
54429;DHT22;40337;52.978;6.310;2022-07-29T09:44:19;18.80;99.90
54429;DHT22;40337;52.978;6.310;2022-07-29T09:47:03;19.00;99.90
54429;DHT22;40337;52.978;6.310;2022-07-29T09:49:35;19.20;99.90
54429;DHT22;40337;52.978;6.310;2022-07-29T09:52:06;19.40;99.90
54429;DHT22;40337;52.978;6.310;2022-07-29T09:54:32;19.50;99.90
54429;DHT22;40337;52.978;6.310;2022-07-29T09:57:06;19.50;99.90
54429;DHT22;40337;52.978;6.310;2022-07-29T09:59:33;19.60;99.90
54429;DHT22;40337;52.978;6.310;2022-07-29T10:01:59;19.60;99.90
54429;DHT22;40337;52.978;6.310;2022-07-29T10:04:39;19.80;99.90
54429;DHT22;40337;52.978;6.310;2022-07-29T10:07:05;19.90;99.90
54429;DHT22;40337;52.978;6.310;2022-07-29T10:09:32;20.10;99.90
54429;DHT22;40337;52.978;6.310;2022-07-29T10:12:09;20.20;99.90
54429;DHT22;40337;52.978;6.310;2022-07-29T10:14:36;20.50;99.90
54429;DHT22;40337;52.978;6.310;2022-07-29T10:17:03;20.60;99.90
54429;DHT22;40337;52.978;6.310;2022-07-29T10:19:30;20.60;99.90
54429;DHT22;40337;52.978;6.310;2022-07-29T10:21:58;20.60;99.90
54429;DHT22;40337;52.978;6.310;2022-07-29T10:24:26;20.70;99.90
54429;DHT22;40337;52.978;6.310;2022-07-29T10:26:54;20.70;99.90
54429;DHT22;40337;52.978;6.310;2022-07-29T10:29:20;20.70;99.90
54429;DHT22;40337;52.978;6.310;2022-07-29T10:40:39;21.30;99.90
54429;DHT22;40337;52.978;6.310;2022-07-29T10:43:29;21.70;99.90
54429;DHT22;40337;52.978;6.310;2022-07-29T10:45:59;22.40;99.90
54429;DHT22;40337;52.978;6.310;2022-07-29T10:48:25;22.70;99.90
54429;DHT22;40337;52.978;6.310;2022-07-29T10:51:02;22.70;99.90
54429;DHT22;40337;52.978;6.310;2022-07-29T10:53:49;22.70;99.40
54429;DHT22;40337;52.978;6.310;2022-07-29T10:56:32;22.80;99.90
54429;DHT22;40337;52.978;6.310;2022-07-29T11:01:48;22.80;99.20
54429;DHT22;40337;52.978;6.310;2022-07-29T11:04:15;22.70;99.60
54429;DHT22;40337;52.978;6.310;2022-07-29T11:09:25;22.50;99.90
54429;DHT22;40337;52.978;6.310;2022-07-29T11:11:51;22.50;99.90
54429;DHT22;40337;52.978;6.310;2022-07-29T11:14:18;22.30;99.90
54429;DHT22;40337;52.978;6.310;2022-07-29T11:17:02;22.40;99.90
54429;DHT22;40337;52.978;6.310;2022-07-29T11:19:28;22.50;99.90
54429;DHT22;40337;52.978;6.310;2022-07-29T11:21:54;22.50;99.90
54429;DHT22;40337;52.978;6.310;2022-07-29T11:24:24;22.60;99.90
54429;DHT22;40337;52.978;6.310;2022-07-29T11:27:18;22.60;99.10
54429;DHT22;40337;52.978;6.310;2022-07-29T11:29:52;22.70;99.80
54429;DHT22;40337;52.978;6.310;2022-07-29T11:32:19;22.90;99.90
54429;DHT22;40337;52.978;6.310;2022-07-29T11:34:47;23.10;99.90
54429;DHT22;40337;52.978;6.310;2022-07-29T11:37:14;23.50;99.90
54429;DHT22;40337;52.978;6.310;2022-07-29T11:45:02;24.10;97.40
54429;DHT22;40337;52.978;6.310;2022-07-29T11:47:31;24.30;96.90
54429;DHT22;40337;52.978;6.310;2022-07-29T11:49:59;24.30;97.50
54429;DHT22;40337;52.978;6.310;2022-07-29T11:52:54;24.40;96.70
54429;DHT22;40337;52.978;6.310;2022-07-29T11:55:20;24.70;97.80
54429;DHT22;40337;52.978;6.310;2022-07-29T11:57:55;25.10;96.10
54429;DHT22;40337;52.978;6.310;2022-07-29T12:02:59;25.90;94.60
54429;DHT22;40337;52.978;6.310;2022-07-29T12:05:36;26.00;93.70
54429;DHT22;40337;52.978;6.310;2022-07-29T12:08:07;26.10;92.50
54429;DHT22;40337;52.978;6.310;2022-07-29T12:10:33;25.60;92.10
54429;DHT22;40337;52.978;6.310;2022-07-29T12:12:59;25.50;94.00
54429;DHT22;40337;52.978;6.310;2022-07-29T12:15:24;25.90;94.20
54429;DHT22;40337;52.978;6.310;2022-07-29T12:17:51;26.00;92.50
54429;DHT22;40337;52.978;6.310;2022-07-29T12:20:28;26.00;92.40
54429;DHT22;40337;52.978;6.310;2022-07-29T12:22:55;26.20;91.50
54429;DHT22;40337;52.978;6.310;2022-07-29T12:25:23;26.30;92.20
54429;DHT22;40337;52.978;6.310;2022-07-29T12:27:59;26.30;91.70
54429;DHT22;40337;52.978;6.310;2022-07-29T12:30:35;26.40;90.50
54429;DHT22;40337;52.978;6.310;2022-07-29T12:33:01;26.10;90.90
54429;DHT22;40337;52.978;6.310;2022-07-29T12:35:27;26.00;91.50
54429;DHT22;40337;52.978;6.310;2022-07-29T12:37:52;26.10;90.80
54429;DHT22;40337;52.978;6.310;2022-07-29T12:40:20;26.20;89.60
54429;DHT22;40337;52.978;6.310;2022-07-29T12:43:12;26.10;88.20
54429;DHT22;40337;52.978;6.310;2022-07-29T12:45:39;26.20;88.10
54429;DHT22;40337;52.978;6.310;2022-07-29T12:48:05;26.30;88.00
54429;DHT22;40337;52.978;6.310;2022-07-29T12:50:34;26.30;86.40
54429;DHT22;40337;52.978;6.310;2022-07-29T12:53:13;26.40;85.80
54429;DHT22;40337;52.978;6.310;2022-07-29T12:55:50;26.50;84.00
54429;DHT22;40337;52.978;6.310;2022-07-29T13:01:00;26.60;86.90
54429;DHT22;40337;52.978;6.310;2022-07-29T13:03:26;26.70;84.80
54429;DHT22;40337;52.978;6.310;2022-07-29T13:05:52;26.80;85.10
54429;DHT22;40337;52.978;6.310;2022-07-29T13:08:18;27.00;86.20
54429;DHT22;40337;52.978;6.310;2022-07-29T13:10:45;26.80;83.70
54429;DHT22;40337;52.978;6.310;2022-07-29T13:13:13;26.90;85.20
54429;DHT22;40337;52.978;6.310;2022-07-29T13:15:41;27.00;83.70
54429;DHT22;40337;52.978;6.310;2022-07-29T13:18:26;27.10;84.30
54429;DHT22;40337;52.978;6.310;2022-07-29T13:20:52;27.10;79.20
54429;DHT22;40337;52.978;6.310;2022-07-29T13:23:17;27.20;83.00
54429;DHT22;40337;52.978;6.310;2022-07-29T13:25:44;27.30;81.10
54429;DHT22;40337;52.978;6.310;2022-07-29T13:28:09;27.20;80.50
54429;DHT22;40337;52.978;6.310;2022-07-29T13:30:37;27.30;80.20
54429;DHT22;40337;52.978;6.310;2022-07-29T13:33:03;27.50;80.40
54429;DHT22;40337;52.978;6.310;2022-07-29T13:35:28;27.40;79.50
54429;DHT22;40337;52.978;6.310;2022-07-29T13:37:55;27.60;79.30
54429;DHT22;40337;52.978;6.310;2022-07-29T13:40:20;27.90;78.90
54429;DHT22;40337;52.978;6.310;2022-07-29T13:42:46;28.00;76.80
54429;DHT22;40337;52.978;6.310;2022-07-29T13:45:12;28.00;75.70
54429;DHT22;40337;52.978;6.310;2022-07-29T13:47:38;28.10;75.00
54429;DHT22;40337;52.978;6.310;2022-07-29T13:50:05;28.20;73.40
54429;DHT22;40337;52.978;6.310;2022-07-29T13:52:31;28.30;74.00
54429;DHT22;40337;52.978;6.310;2022-07-29T13:54:56;28.50;73.40
54429;DHT22;40337;52.978;6.310;2022-07-29T13:57:22;28.40;74.90
54429;DHT22;40337;52.978;6.310;2022-07-29T13:59:48;28.40;72.60
54429;DHT22;40337;52.978;6.310;2022-07-29T14:02:13;28.50;71.90
54429;DHT22;40337;52.978;6.310;2022-07-29T14:04:39;28.50;72.00
54429;DHT22;40337;52.978;6.310;2022-07-29T14:07:05;28.50;71.80
54429;DHT22;40337;52.978;6.310;2022-07-29T14:09:31;28.50;73.60
54429;DHT22;40337;52.978;6.310;2022-07-29T14:11:57;28.30;68.70
54429;DHT22;40337;52.978;6.310;2022-07-29T14:14:22;28.00;69.30
54429;DHT22;40337;52.978;6.310;2022-07-29T14:16:48;28.10;72.90
54429;DHT22;40337;52.978;6.310;2022-07-29T14:19:13;28.20;71.00
54429;DHT22;40337;52.978;6.310;2022-07-29T14:21:40;28.20;69.30
54429;DHT22;40337;52.978;6.310;2022-07-29T14:24:06;28.30;68.80
54429;DHT22;40337;52.978;6.310;2022-07-29T14:26:31;28.20;68.50
54429;DHT22;40337;52.978;6.310;2022-07-29T14:28:57;28.30;69.10
54429;DHT22;40337;52.978;6.310;2022-07-29T14:31:23;28.20;70.60
54429;DHT22;40337;52.978;6.310;2022-07-29T14:33:48;27.80;68.80
54429;DHT22;40337;52.978;6.310;2022-07-29T14:36:14;27.50;69.80
54429;DHT22;40337;52.978;6.310;2022-07-29T14:38:40;27.50;68.80
54429;DHT22;40337;52.978;6.310;2022-07-29T14:41:06;27.50;69.10
54429;DHT22;40337;52.978;6.310;2022-07-29T14:43:31;27.70;70.70
54429;DHT22;40337;52.978;6.310;2022-07-29T14:45:57;27.70;68.70
54429;DHT22;40337;52.978;6.310;2022-07-29T14:48:23;27.80;69.20
54429;DHT22;40337;52.978;6.310;2022-07-29T14:50:48;27.90;67.90
54429;DHT22;40337;52.978;6.310;2022-07-29T14:53:14;27.90;69.10
54429;DHT22;40337;52.978;6.310;2022-07-29T14:55:40;28.00;69.40
54429;DHT22;40337;52.978;6.310;2022-07-29T14:58:06;28.10;69.80
54429;DHT22;40337;52.978;6.310;2022-07-29T15:00:32;27.90;68.90
54429;DHT22;40337;52.978;6.310;2022-07-29T15:02:59;27.80;68.60
54429;DHT22;40337;52.978;6.310;2022-07-29T15:05:26;27.80;68.80
54429;DHT22;40337;52.978;6.310;2022-07-29T15:07:51;27.80;69.80
54429;DHT22;40337;52.978;6.310;2022-07-29T15:10:17;27.80;70.00
54429;DHT22;40337;52.978;6.310;2022-07-29T15:12:42;27.70;69.70
54429;DHT22;40337;52.978;6.310;2022-07-29T15:15:08;27.60;68.80
54429;DHT22;40337;52.978;6.310;2022-07-29T15:17:34;27.60;69.50
54429;DHT22;40337;52.978;6.310;2022-07-29T15:20:00;27.60;69.30
54429;DHT22;40337;52.978;6.310;2022-07-29T15:22:25;27.80;69.80
54429;DHT22;40337;52.978;6.310;2022-07-29T15:24:51;27.70;68.90
54429;DHT22;40337;52.978;6.310;2022-07-29T15:27:17;27.70;70.20
54429;DHT22;40337;52.978;6.310;2022-07-29T15:29:43;27.50;72.60
54429;DHT22;40337;52.978;6.310;2022-07-29T15:32:09;27.40;72.60
54429;DHT22;40337;52.978;6.310;2022-07-29T15:34:36;27.40;70.30
54429;DHT22;40337;52.978;6.310;2022-07-29T15:37:03;27.50;70.60
54429;DHT22;40337;52.978;6.310;2022-07-29T15:39:29;27.50;69.80
54429;DHT22;40337;52.978;6.310;2022-07-29T15:41:54;27.60;70.10
54429;DHT22;40337;52.978;6.310;2022-07-29T15:44:20;27.60;68.30
54429;DHT22;40337;52.978;6.310;2022-07-29T15:46:46;27.60;68.90
54429;DHT22;40337;52.978;6.310;2022-07-29T15:49:40;27.50;70.90
54429;DHT22;40337;52.978;6.310;2022-07-29T15:52:07;27.60;67.40
54429;DHT22;40337;52.978;6.310;2022-07-29T15:54:34;27.50;69.50
54429;DHT22;40337;52.978;6.310;2022-07-29T15:57:01;27.30;70.50
54429;DHT22;40337;52.978;6.310;2022-07-29T15:59:26;27.00;70.30
54429;DHT22;40337;52.978;6.310;2022-07-29T16:01:52;26.90;71.00
54429;DHT22;40337;52.978;6.310;2022-07-29T16:04:18;26.90;72.30
54429;DHT22;40337;52.978;6.310;2022-07-29T16:06:45;26.90;71.30
54429;DHT22;40337;52.978;6.310;2022-07-29T16:09:11;26.90;69.40
54429;DHT22;40337;52.978;6.310;2022-07-29T16:11:37;26.90;70.00
54429;DHT22;40337;52.978;6.310;2022-07-29T16:14:03;26.90;67.60